sensor_id;sensor_type;location;lat;lon;timestamp;temperature;humidity
13409;DHT22;6775;49.574;11.170;2023-04-28T00:02:02;8.40;99.90
13409;DHT22;6775;49.574;11.170;2023-04-28T00:04:30;8.40;99.90
13409;DHT22;6775;49.574;11.170;2023-04-28T00:06:58;8.30;99.90
13409;DHT22;6775;49.574;11.170;2023-04-28T00:09:27;8.30;99.90
13409;DHT22;6775;49.574;11.170;2023-04-28T00:11:55;8.30;99.90
13409;DHT22;6775;49.574;11.170;2023-04-28T00:14:23;8.30;99.90
13409;DHT22;6775;49.574;11.170;2023-04-28T00:16:51;8.40;99.90
13409;DHT22;6775;49.574;11.170;2023-04-28T00:19:22;8.50;99.90
13409;DHT22;6775;49.574;11.170;2023-04-28T00:21:50;8.40;99.90
13409;DHT22;6775;49.574;11.170;2023-04-28T00:24:18;8.50;99.90
13409;DHT22;6775;49.574;11.170;2023-04-28T00:26:47;8.50;99.90
13409;DHT22;6775;49.574;11.170;2023-04-28T00:29:15;8.40;99.90
13409;DHT22;6775;49.574;11.170;2023-04-28T00:31:43;8.30;99.90
13409;DHT22;6775;49.574;11.170;2023-04-28T00:34:11;8.30;99.90
13409;DHT22;6775;49.574;11.170;2023-04-28T00:36:41;8.30;99.90
13409;DHT22;6775;49.574;11.170;2023-04-28T00:39:08;8.30;99.90
13409;DHT22;6775;49.574;11.170;2023-04-28T00:41:36;8.20;99.90
13409;DHT22;6775;49.574;11.170;2023-04-28T00:44:05;8.20;99.90
13409;DHT22;6775;49.574;11.170;2023-04-28T00:46:33;8.20;99.90
13409;DHT22;6775;49.574;11.170;2023-04-28T00:49:03;8.20;99.90
13409;DHT22;6775;49.574;11.170;2023-04-28T00:51:31;8.20;99.90
13409;DHT22;6775;49.574;11.170;2023-04-28T00:53:59;8.20;99.90
13409;DHT22;6775;49.574;11.170;2023-04-28T00:56:27;8.20;99.90
13409;DHT22;6775;49.574;11.170;2023-04-28T00:58:56;8.20;99.90
13409;DHT22;6775;49.574;11.170;2023-04-28T01:01:25;8.10;99.90
13409;DHT22;6775;49.574;11.170;2023-04-28T01:03:53;8.20;99.90
13409;DHT22;6775;49.574;11.170;2023-04-28T01:06:22;8.30;99.90
13409;DHT22;6775;49.574;11.170;2023-04-28T01:08:50;8.30;99.90
13409;DHT22;6775;49.574;11.170;2023-04-28T01:11:18;8.30;99.90
13409;DHT22;6775;49.574;11.170;2023-04-28T01:13:46;8.40;99.90
13409;DHT22;6775;49.574;11.170;2023-04-28T01:16:14;8.30;99.90
13409;DHT22;6775;49.574;11.170;2023-04-28T01:18:46;8.30;99.90
13409;DHT22;6775;49.574;11.170;2023-04-28T01:21:14;8.40;99.90
13409;DHT22;6775;49.574;11.170;2023-04-28T01:23:55;8.30;99.90
13409;DHT22;6775;49.574;11.170;2023-04-28T01:26:23;8.40;99.90
13409;DHT22;6775;49.574;11.170;2023-04-28T01:28:50;8.40;99.90
13409;DHT22;6775;49.574;11.170;2023-04-28T01:31:18;8.30;99.90
13409;DHT22;6775;49.574;11.170;2023-04-28T01:33:46;8.30;99.90
13409;DHT22;6775;49.574;11.170;2023-04-28T01:36:14;8.30;99.90
13409;DHT22;6775;49.574;11.170;2023-04-28T01:38:42;8.40;99.90
13409;DHT22;6775;49.574;11.170;2023-04-28T01:41:11;8.40;99.90
13409;DHT22;6775;49.574;11.170;2023-04-28T01:43:39;8.40;99.90
13409;DHT22;6775;49.574;11.170;2023-04-28T01:46:07;8.50;99.90
13409;DHT22;6775;49.574;11.170;2023-04-28T01:48:34;8.50;99.90
13409;DHT22;6775;49.574;11.170;2023-04-28T01:51:02;8.50;99.90
13409;DHT22;6775;49.574;11.170;2023-04-28T01:53:31;8.50;99.90
13409;DHT22;6775;49.574;11.170;2023-04-28T01:55:58;8.60;99.90
13409;DHT22;6775;49.574;11.170;2023-04-28T01:58:27;8.60;99.90
13409;DHT22;6775;49.574;11.170;2023-04-28T02:00:55;8.60;99.90
13409;DHT22;6775;49.574;11.170;2023-04-28T02:03:23;8.60;99.90
13409;DHT22;6775;49.574;11.170;2023-04-28T02:05:51;8.60;99.90
13409;DHT22;6775;49.574;11.170;2023-04-28T02:08:19;8.60;99.90
13409;DHT22;6775;49.574;11.170;2023-04-28T02:10:47;8.60;99.90
13409;DHT22;6775;49.574;11.170;2023-04-28T02:13:15;8.60;99.90
13409;DHT22;6775;49.574;11.170;2023-04-28T02:15:44;8.60;99.90
13409;DHT22;6775;49.574;11.170;2023-04-28T02:18:12;8.50;99.90
13409;DHT22;6775;49.574;11.170;2023-04-28T02:20:40;8.60;99.90
13409;DHT22;6775;49.574;11.170;2023-04-28T02:23:08;8.60;99.90
13409;DHT22;6775;49.574;11.170;2023-04-28T02:25:36;8.50;99.90
13409;DHT22;6775;49.574;11.170;2023-04-28T02:28:03;8.40;99.90
13409;DHT22;6775;49.574;11.170;2023-04-28T02:30:31;8.50;99.90
13409;DHT22;6775;49.574;11.170;2023-04-28T02:33:00;8.40;99.90
13409;DHT22;6775;49.574;11.170;2023-04-28T02:35:28;8.40;99.90
13409;DHT22;6775;49.574;11.170;2023-04-28T02:37:56;8.40;99.90
13409;DHT22;6775;49.574;11.170;2023-04-28T02:40:24;8.40;99.90
13409;DHT22;6775;49.574;11.170;2023-04-28T02:42:52;8.40;99.90
13409;DHT22;6775;49.574;11.170;2023-04-28T02:45:19;8.40;99.90
13409;DHT22;6775;49.574;11.170;2023-04-28T02:47:47;8.40;99.90
13409;DHT22;6775;49.574;11.170;2023-04-28T02:50:17;8.30;99.90
13409;DHT22;6775;49.574;11.170;2023-04-28T02:52:44;8.30;99.90
13409;DHT22;6775;49.574;11.170;2023-04-28T02:55:14;8.30;99.90
13409;DHT22;6775;49.574;11.170;2023-04-28T02:57:49;8.40;99.90
13409;DHT22;6775;49.574;11.170;2023-04-28T03:00:17;8.40;99.90
13409;DHT22;6775;49.574;11.170;2023-04-28T03:02:45;8.40;99.90
13409;DHT22;6775;49.574;11.170;2023-04-28T03:05:13;8.40;99.90
13409;DHT22;6775;49.574;11.170;2023-04-28T03:07:42;8.50;99.90
13409;DHT22;6775;49.574;11.170;2023-04-28T03:10:10;8.50;99.90
13409;DHT22;6775;49.574;11.170;2023-04-28T03:12:38;8.60;99.90
13409;DHT22;6775;49.574;11.170;2023-04-28T03:15:07;8.60;99.90
13409;DHT22;6775;49.574;11.170;2023-04-28T03:17:37;8.60;99.90
13409;DHT22;6775;49.574;11.170;2023-04-28T03:20:08;8.60;99.90
13409;DHT22;6775;49.574;11.170;2023-04-28T03:22:36;8.60;99.90
13409;DHT22;6775;49.574;11.170;2023-04-28T03:25:06;8.60;99.90
13409;DHT22;6775;49.574;11.170;2023-04-28T03:27:34;8.60;99.90
13409;DHT22;6775;49.574;11.170;2023-04-28T03:30:02;8.60;99.90
13409;DHT22;6775;49.574;11.170;2023-04-28T03:32:30;8.60;99.90
13409;DHT22;6775;49.574;11.170;2023-04-28T03:34:58;8.60;99.90
13409;DHT22;6775;49.574;11.170;2023-04-28T03:37:26;8.60;99.90
13409;DHT22;6775;49.574;11.170;2023-04-28T03:39:54;8.60;99.90
13409;DHT22;6775;49.574;11.170;2023-04-28T03:42:23;8.70;99.90
13409;DHT22;6775;49.574;11.170;2023-04-28T03:44:51;8.70;99.90
13409;DHT22;6775;49.574;11.170;2023-04-28T03:47:18;8.70;99.90
13409;DHT22;6775;49.574;11.170;2023-04-28T03:49:46;8.70;99.90
13409;DHT22;6775;49.574;11.170;2023-04-28T03:52:14;8.70;99.90
13409;DHT22;6775;49.574;11.170;2023-04-28T03:54:42;8.70;99.90
13409;DHT22;6775;49.574;11.170;2023-04-28T03:57:10;8.70;99.90
13409;DHT22;6775;49.574;11.170;2023-04-28T03:59:39;8.80;99.90
13409;DHT22;6775;49.574;11.170;2023-04-28T04:02:07;8.80;99.90
13409;DHT22;6775;49.574;11.170;2023-04-28T04:04:35;8.80;99.90
13409;DHT22;6775;49.574;11.170;2023-04-28T04:07:03;8.80;99.90
13409;DHT22;6775;49.574;11.170;2023-04-28T04:09:31;8.90;99.90
13409;DHT22;6775;49.574;11.170;2023-04-28T04:11:59;8.90;99.90
13409;DHT22;6775;49.574;11.170;2023-04-28T04:14:27;9.00;99.90
13409;DHT22;6775;49.574;11.170;2023-04-28T04:16:56;8.90;99.90
13409;DHT22;6775;49.574;11.170;2023-04-28T04:19:24;9.00;99.90
13409;DHT22;6775;49.574;11.170;2023-04-28T04:21:52;9.00;99.90
13409;DHT22;6775;49.574;11.170;2023-04-28T04:24:20;9.10;99.90
13409;DHT22;6775;49.574;11.170;2023-04-28T04:26:48;9.10;99.90
13409;DHT22;6775;49.574;11.170;2023-04-28T04:29:15;9.20;99.90
13409;DHT22;6775;49.574;11.170;2023-04-28T04:31:43;9.20;99.90
13409;DHT22;6775;49.574;11.170;2023-04-28T04:34:13;9.20;99.90
13409;DHT22;6775;49.574;11.170;2023-04-28T04:36:41;9.30;99.90
13409;DHT22;6775;49.574;11.170;2023-04-28T04:39:09;9.30;99.90
13409;DHT22;6775;49.574;11.170;2023-04-28T04:41:37;9.30;99.90
13409;DHT22;6775;49.574;11.170;2023-04-28T04:44:05;9.40;99.90
13409;DHT22;6775;49.574;11.170;2023-04-28T04:46:33;9.40;99.90
13409;DHT22;6775;49.574;11.170;2023-04-28T04:49:00;9.40;99.90
13409;DHT22;6775;49.574;11.170;2023-04-28T04:51:30;9.50;99.90
13409;DHT22;6775;49.574;11.170;2023-04-28T04:53:57;9.50;99.90
13409;DHT22;6775;49.574;11.170;2023-04-28T04:56:25;9.50;99.90
13409;DHT22;6775;49.574;11.170;2023-04-28T04:58:53;9.50;99.90
13409;DHT22;6775;49.574;11.170;2023-04-28T05:01:21;9.50;99.90
13409;DHT22;6775;49.574;11.170;2023-04-28T05:03:49;9.50;99.90
13409;DHT22;6775;49.574;11.170;2023-04-28T05:06:17;9.50;99.90
13409;DHT22;6775;49.574;11.170;2023-04-28T05:08:46;9.50;99.90
13409;DHT22;6775;49.574;11.170;2023-04-28T05:11:14;9.50;99.90
13409;DHT22;6775;49.574;11.170;2023-04-28T05:13:42;9.60;99.90
13409;DHT22;6775;49.574;11.170;2023-04-28T05:16:10;9.50;99.90
13409;DHT22;6775;49.574;11.170;2023-04-28T05:18:37;9.50;99.90
13409;DHT22;6775;49.574;11.170;2023-04-28T05:21:05;9.50;99.90
13409;DHT22;6775;49.574;11.170;2023-04-28T05:23:33;9.50;99.90
13409;DHT22;6775;49.574;11.170;2023-04-28T05:26:02;9.50;99.90
13409;DHT22;6775;49.574;11.170;2023-04-28T05:28:30;9.60;99.90
13409;DHT22;6775;49.574;11.170;2023-04-28T05:30:58;9.50;99.90
13409;DHT22;6775;49.574;11.170;2023-04-28T05:33:26;9.60;99.90
13409;DHT22;6775;49.574;11.170;2023-04-28T05:35:53;9.60;99.90
13409;DHT22;6775;49.574;11.170;2023-04-28T05:38:21;9.70;99.90
13409;DHT22;6775;49.574;11.170;2023-04-28T05:40:49;9.70;99.90
13409;DHT22;6775;49.574;11.170;2023-04-28T05:43:18;9.70;99.90
13409;DHT22;6775;49.574;11.170;2023-04-28T05:45:46;9.80;99.90
13409;DHT22;6775;49.574;11.170;2023-04-28T05:48:14;9.90;99.90
13409;DHT22;6775;49.574;11.170;2023-04-28T05:50:42;9.90;99.90
13409;DHT22;6775;49.574;11.170;2023-04-28T05:53:10;10.00;99.90
13409;DHT22;6775;49.574;11.170;2023-04-28T05:55:38;10.00;99.90
13409;DHT22;6775;49.574;11.170;2023-04-28T05:58:06;10.00;99.90
13409;DHT22;6775;49.574;11.170;2023-04-28T06:00:35;10.10;99.90
13409;DHT22;6775;49.574;11.170;2023-04-28T06:03:03;10.20;99.90
13409;DHT22;6775;49.574;11.170;2023-04-28T06:05:31;10.30;99.90
13409;DHT22;6775;49.574;11.170;2023-04-28T06:07:59;10.30;99.90
13409;DHT22;6775;49.574;11.170;2023-04-28T06:10:27;10.40;99.90
13409;DHT22;6775;49.574;11.170;2023-04-28T06:12:54;10.40;99.90
13409;DHT22;6775;49.574;11.170;2023-04-28T06:15:22;10.40;99.90
13409;DHT22;6775;49.574;11.170;2023-04-28T06:17:52;10.50;99.90
13409;DHT22;6775;49.574;11.170;2023-04-28T06:20:20;10.50;99.90
13409;DHT22;6775;49.574;11.170;2023-04-28T06:22:47;10.50;99.90
13409;DHT22;6775;49.574;11.170;2023-04-28T06:25:15;10.50;99.90
13409;DHT22;6775;49.574;11.170;2023-04-28T06:27:43;10.50;99.90
13409;DHT22;6775;49.574;11.170;2023-04-28T06:30:16;10.50;99.90
13409;DHT22;6775;49.574;11.170;2023-04-28T06:32:45;10.50;99.90
13409;DHT22;6775;49.574;11.170;2023-04-28T06:35:15;10.60;99.90
13409;DHT22;6775;49.574;11.170;2023-04-28T06:37:43;10.50;99.90
13409;DHT22;6775;49.574;11.170;2023-04-28T06:40:11;10.60;99.90
13409;DHT22;6775;49.574;11.170;2023-04-28T06:42:38;10.60;99.90
13409;DHT22;6775;49.574;11.170;2023-04-28T06:45:07;10.60;99.90
13409;DHT22;6775;49.574;11.170;2023-04-28T06:47:35;10.60;99.90
13409;DHT22;6775;49.574;11.170;2023-04-28T06:50:06;10.70;99.90
13409;DHT22;6775;49.574;11.170;2023-04-28T06:52:36;10.70;99.90
13409;DHT22;6775;49.574;11.170;2023-04-28T06:55:06;10.70;99.90
13409;DHT22;6775;49.574;11.170;2023-04-28T06:57:34;10.70;99.90
13409;DHT22;6775;49.574;11.170;2023-04-28T07:00:04;10.70;99.90
13409;DHT22;6775;49.574;11.170;2023-04-28T07:02:32;10.80;99.90
13409;DHT22;6775;49.574;11.170;2023-04-28T07:05:00;10.70;99.90
13409;DHT22;6775;49.574;11.170;2023-04-28T07:07:29;10.80;99.90
13409;DHT22;6775;49.574;11.170;2023-04-28T07:09:58;10.80;99.90
13409;DHT22;6775;49.574;11.170;2023-04-28T07:12:26;10.70;99.90
13409;DHT22;6775;49.574;11.170;2023-04-28T07:14:54;10.70;99.90
13409;DHT22;6775;49.574;11.170;2023-04-28T07:17:22;10.60;99.90
13409;DHT22;6775;49.574;11.170;2023-04-28T07:19:50;10.60;99.90
13409;DHT22;6775;49.574;11.170;2023-04-28T07:22:18;10.60;99.90
13409;DHT22;6775;49.574;11.170;2023-04-28T07:24:46;10.60;99.90
13409;DHT22;6775;49.574;11.170;2023-04-28T07:27:15;10.60;99.90
13409;DHT22;6775;49.574;11.170;2023-04-28T07:29:43;10.70;99.90
13409;DHT22;6775;49.574;11.170;2023-04-28T07:32:10;10.60;99.90
13409;DHT22;6775;49.574;11.170;2023-04-28T07:34:38;10.70;99.90
13409;DHT22;6775;49.574;11.170;2023-04-28T07:37:06;10.70;99.90
13409;DHT22;6775;49.574;11.170;2023-04-28T07:39:35;10.70;99.90
13409;DHT22;6775;49.574;11.170;2023-04-28T07:42:04;10.60;99.90
13409;DHT22;6775;49.574;11.170;2023-04-28T07:44:34;10.60;99.90
13409;DHT22;6775;49.574;11.170;2023-04-28T07:47:02;10.60;99.90
13409;DHT22;6775;49.574;11.170;2023-04-28T07:49:30;10.50;99.90
13409;DHT22;6775;49.574;11.170;2023-04-28T07:51:58;10.40;99.90
13409;DHT22;6775;49.574;11.170;2023-04-28T07:54:26;10.40;99.90
13409;DHT22;6775;49.574;11.170;2023-04-28T07:56:55;10.30;99.90
13409;DHT22;6775;49.574;11.170;2023-04-28T07:59:23;10.30;99.90
13409;DHT22;6775;49.574;11.170;2023-04-28T08:01:52;10.20;99.90
13409;DHT22;6775;49.574;11.170;2023-04-28T08:04:20;10.20;99.90
13409;DHT22;6775;49.574;11.170;2023-04-28T08:06:49;10.20;99.90
13409;DHT22;6775;49.574;11.170;2023-04-28T08:09:16;10.20;99.90
13409;DHT22;6775;49.574;11.170;2023-04-28T08:11:44;10.20;99.90
13409;DHT22;6775;49.574;11.170;2023-04-28T08:14:12;10.20;99.90
13409;DHT22;6775;49.574;11.170;2023-04-28T08:16:41;10.10;99.90
13409;DHT22;6775;49.574;11.170;2023-04-28T08:19:10;10.10;99.90
13409;DHT22;6775;49.574;11.170;2023-04-28T08:21:38;10.10;99.90
13409;DHT22;6775;49.574;11.170;2023-04-28T08:24:06;10.20;99.90
13409;DHT22;6775;49.574;11.170;2023-04-28T08:26:36;10.20;99.90
13409;DHT22;6775;49.574;11.170;2023-04-28T08:29:04;10.20;99.90
13409;DHT22;6775;49.574;11.170;2023-04-28T08:31:32;10.30;99.90
13409;DHT22;6775;49.574;11.170;2023-04-28T08:34:00;10.30;99.90
13409;DHT22;6775;49.574;11.170;2023-04-28T08:36:32;10.30;99.90
13409;DHT22;6775;49.574;11.170;2023-04-28T08:39:00;10.30;99.90
13409;DHT22;6775;49.574;11.170;2023-04-28T08:41:31;10.40;99.90
13409;DHT22;6775;49.574;11.170;2023-04-28T08:43:59;10.40;99.90
13409;DHT22;6775;49.574;11.170;2023-04-28T08:46:28;10.50;99.90
13409;DHT22;6775;49.574;11.170;2023-04-28T08:48:59;10.50;99.90
13409;DHT22;6775;49.574;11.170;2023-04-28T08:51:34;10.60;99.90
13409;DHT22;6775;49.574;11.170;2023-04-28T08:54:04;10.70;99.90
13409;DHT22;6775;49.574;11.170;2023-04-28T08:56:36;10.80;99.90
13409;DHT22;6775;49.574;11.170;2023-04-28T08:59:05;10.80;99.90
13409;DHT22;6775;49.574;11.170;2023-04-28T09:01:33;10.90;99.90
13409;DHT22;6775;49.574;11.170;2023-04-28T09:04:02;10.90;99.90
13409;DHT22;6775;49.574;11.170;2023-04-28T09:06:31;10.90;99.90
13409;DHT22;6775;49.574;11.170;2023-04-28T09:09:19;10.90;99.90
13409;DHT22;6775;49.574;11.170;2023-04-28T09:11:51;10.90;99.90
13409;DHT22;6775;49.574;11.170;2023-04-28T09:14:19;10.90;99.90
13409;DHT22;6775;49.574;11.170;2023-04-28T09:16:47;10.90;99.90
13409;DHT22;6775;49.574;11.170;2023-04-28T09:19:15;10.90;99.90
13409;DHT22;6775;49.574;11.170;2023-04-28T09:21:51;10.90;99.90
13409;DHT22;6775;49.574;11.170;2023-04-28T09:24:29;10.90;99.90
13409;DHT22;6775;49.574;11.170;2023-04-28T09:26:57;10.90;99.90
13409;DHT22;6775;49.574;11.170;2023-04-28T09:29:25;10.90;99.90
13409;DHT22;6775;49.574;11.170;2023-04-28T09:31:53;10.80;99.90
13409;DHT22;6775;49.574;11.170;2023-04-28T09:34:21;10.80;99.90
13409;DHT22;6775;49.574;11.170;2023-04-28T09:36:49;10.80;99.90
13409;DHT22;6775;49.574;11.170;2023-04-28T09:39:29;10.80;99.90
13409;DHT22;6775;49.574;11.170;2023-04-28T09:41:57;10.90;99.90
13409;DHT22;6775;49.574;11.170;2023-04-28T09:44:29;10.90;99.90
13409;DHT22;6775;49.574;11.170;2023-04-28T09:46:56;10.90;99.90
13409;DHT22;6775;49.574;11.170;2023-04-28T09:49:24;11.00;99.90
13409;DHT22;6775;49.574;11.170;2023-04-28T09:51:52;11.10;99.90
13409;DHT22;6775;49.574;11.170;2023-04-28T09:54:20;11.10;99.90
13409;DHT22;6775;49.574;11.170;2023-04-28T09:56:50;11.20;99.90
13409;DHT22;6775;49.574;11.170;2023-04-28T09:59:18;11.20;99.90
13409;DHT22;6775;49.574;11.170;2023-04-28T10:01:48;11.30;99.90
13409;DHT22;6775;49.574;11.170;2023-04-28T10:04:16;11.40;99.90
13409;DHT22;6775;49.574;11.170;2023-04-28T10:06:45;11.50;99.90
13409;DHT22;6775;49.574;11.170;2023-04-28T10:09:13;11.60;99.90
13409;DHT22;6775;49.574;11.170;2023-04-28T10:11:42;11.70;99.90
13409;DHT22;6775;49.574;11.170;2023-04-28T10:14:12;11.70;99.90
13409;DHT22;6775;49.574;11.170;2023-04-28T10:16:41;11.70;99.90
13409;DHT22;6775;49.574;11.170;2023-04-28T10:19:09;11.70;99.90
13409;DHT22;6775;49.574;11.170;2023-04-28T10:21:42;11.70;99.90
13409;DHT22;6775;49.574;11.170;2023-04-28T10:24:19;11.70;99.90
13409;DHT22;6775;49.574;11.170;2023-04-28T10:27:06;11.60;99.90
13409;DHT22;6775;49.574;11.170;2023-04-28T10:29:36;11.60;99.90
13409;DHT22;6775;49.574;11.170;2023-04-28T10:32:18;11.70;99.90
13409;DHT22;6775;49.574;11.170;2023-04-28T10:34:46;11.80;99.90
13409;DHT22;6775;49.574;11.170;2023-04-28T10:37:14;11.80;99.90
13409;DHT22;6775;49.574;11.170;2023-04-28T10:42:53;11.80;99.90
13409;DHT22;6775;49.574;11.170;2023-04-28T10:48:56;11.60;99.90
13409;DHT22;6775;49.574;11.170;2023-04-28T10:51:28;11.60;99.90
13409;DHT22;6775;49.574;11.170;2023-04-28T10:54:15;11.50;99.90
13409;DHT22;6775;49.574;11.170;2023-04-28T10:57:17;11.50;99.90
13409;DHT22;6775;49.574;11.170;2023-04-28T10:59:49;11.50;99.90
13409;DHT22;6775;49.574;11.170;2023-04-28T11:02:37;11.40;99.90
13409;DHT22;6775;49.574;11.170;2023-04-28T11:05:16;11.50;99.90
13409;DHT22;6775;49.574;11.170;2023-04-28T11:11:19;11.70;99.90
13409;DHT22;6775;49.574;11.170;2023-04-28T11:13:48;11.90;99.90
13409;DHT22;6775;49.574;11.170;2023-04-28T11:16:18;12.00;99.90
13409;DHT22;6775;49.574;11.170;2023-04-28T11:19:04;12.10;99.90
13409;DHT22;6775;49.574;11.170;2023-04-28T11:21:36;12.40;99.90
13409;DHT22;6775;49.574;11.170;2023-04-28T11:24:09;12.50;99.90
13409;DHT22;6775;49.574;11.170;2023-04-28T11:26:38;12.70;99.90
13409;DHT22;6775;49.574;11.170;2023-04-28T11:29:06;12.70;99.90
13409;DHT22;6775;49.574;11.170;2023-04-28T11:31:34;12.70;99.90
13409;DHT22;6775;49.574;11.170;2023-04-28T11:34:04;12.60;99.90
13409;DHT22;6775;49.574;11.170;2023-04-28T11:36:34;12.60;99.90
13409;DHT22;6775;49.574;11.170;2023-04-28T11:39:04;12.50;99.90
13409;DHT22;6775;49.574;11.170;2023-04-28T11:41:34;12.50;99.90
13409;DHT22;6775;49.574;11.170;2023-04-28T11:44:09;12.40;99.90
13409;DHT22;6775;49.574;11.170;2023-04-28T11:46:44;12.40;99.90
13409;DHT22;6775;49.574;11.170;2023-04-28T11:49:16;12.50;99.90
13409;DHT22;6775;49.574;11.170;2023-04-28T11:51:44;12.50;99.90
13409;DHT22;6775;49.574;11.170;2023-04-28T11:54:19;12.60;99.90
13409;DHT22;6775;49.574;11.170;2023-04-28T11:56:48;12.70;99.90
13409;DHT22;6775;49.574;11.170;2023-04-28T11:59:16;12.70;99.90
13409;DHT22;6775;49.574;11.170;2023-04-28T12:01:47;12.70;99.90
13409;DHT22;6775;49.574;11.170;2023-04-28T12:04:26;12.80;99.90
13409;DHT22;6775;49.574;11.170;2023-04-28T12:07:02;12.90;99.90
13409;DHT22;6775;49.574;11.170;2023-04-28T12:09:32;12.90;99.90
13409;DHT22;6775;49.574;11.170;2023-04-28T12:12:02;12.90;99.90
13409;DHT22;6775;49.574;11.170;2023-04-28T12:14:31;12.90;99.90
13409;DHT22;6775;49.574;11.170;2023-04-28T12:17:01;12.90;99.90
13409;DHT22;6775;49.574;11.170;2023-04-28T12:19:31;12.90;99.90
13409;DHT22;6775;49.574;11.170;2023-04-28T12:22:09;13.00;99.90
13409;DHT22;6775;49.574;11.170;2023-04-28T12:24:38;13.00;99.90
13409;DHT22;6775;49.574;11.170;2023-04-28T12:27:13;13.10;99.90
13409;DHT22;6775;49.574;11.170;2023-04-28T12:29:43;13.10;99.90
13409;DHT22;6775;49.574;11.170;2023-04-28T12:32:12;13.10;99.90
13409;DHT22;6775;49.574;11.170;2023-04-28T12:34:41;13.10;99.90
13409;DHT22;6775;49.574;11.170;2023-04-28T12:37:09;13.10;99.90
13409;DHT22;6775;49.574;11.170;2023-04-28T12:39:40;13.20;99.90
13409;DHT22;6775;49.574;11.170;2023-04-28T12:42:08;13.30;99.90
13409;DHT22;6775;49.574;11.170;2023-04-28T12:44:37;13.50;99.90
13409;DHT22;6775;49.574;11.170;2023-04-28T12:47:07;13.60;99.90
13409;DHT22;6775;49.574;11.170;2023-04-28T12:49:36;13.60;99.90
13409;DHT22;6775;49.574;11.170;2023-04-28T12:52:04;13.60;99.90
13409;DHT22;6775;49.574;11.170;2023-04-28T12:54:32;13.50;99.90
13409;DHT22;6775;49.574;11.170;2023-04-28T12:57:03;13.50;99.90
13409;DHT22;6775;49.574;11.170;2023-04-28T12:59:30;13.50;99.90
13409;DHT22;6775;49.574;11.170;2023-04-28T13:01:58;13.50;99.90
13409;DHT22;6775;49.574;11.170;2023-04-28T13:04:26;13.50;99.90
13409;DHT22;6775;49.574;11.170;2023-04-28T13:06:55;13.50;99.90
13409;DHT22;6775;49.574;11.170;2023-04-28T13:09:24;13.50;99.90
13409;DHT22;6775;49.574;11.170;2023-04-28T13:11:52;13.50;99.90
13409;DHT22;6775;49.574;11.170;2023-04-28T13:14:21;13.50;99.90
13409;DHT22;6775;49.574;11.170;2023-04-28T13:16:49;13.50;99.90
13409;DHT22;6775;49.574;11.170;2023-04-28T13:19:18;13.60;99.90
13409;DHT22;6775;49.574;11.170;2023-04-28T13:21:46;13.50;99.90
13409;DHT22;6775;49.574;11.170;2023-04-28T13:24:14;13.60;99.90
13409;DHT22;6775;49.574;11.170;2023-04-28T13:26:42;13.60;99.90
13409;DHT22;6775;49.574;11.170;2023-04-28T13:29:11;13.70;99.90
13409;DHT22;6775;49.574;11.170;2023-04-28T13:31:41;13.80;99.90
13409;DHT22;6775;49.574;11.170;2023-04-28T13:34:09;13.80;99.90
13409;DHT22;6775;49.574;11.170;2023-04-28T13:36:42;13.80;99.90
13409;DHT22;6775;49.574;11.170;2023-04-28T13:39:10;13.80;99.90
13409;DHT22;6775;49.574;11.170;2023-04-28T13:41:40;13.80;99.90
13409;DHT22;6775;49.574;11.170;2023-04-28T13:44:07;13.80;99.90
13409;DHT22;6775;49.574;11.170;2023-04-28T13:46:35;13.80;99.90
13409;DHT22;6775;49.574;11.170;2023-04-28T13:49:04;13.80;99.90
13409;DHT22;6775;49.574;11.170;2023-04-28T13:51:32;13.90;99.90
13409;DHT22;6775;49.574;11.170;2023-04-28T13:54:00;13.90;99.90
13409;DHT22;6775;49.574;11.170;2023-04-28T13:56:30;14.00;99.90
13409;DHT22;6775;49.574;11.170;2023-04-28T13:58:58;14.10;99.90
13409;DHT22;6775;49.574;11.170;2023-04-28T14:01:26;14.20;99.90
13409;DHT22;6775;49.574;11.170;2023-04-28T14:03:53;14.30;99.90
13409;DHT22;6775;49.574;11.170;2023-04-28T14:06:23;14.30;99.90
13409;DHT22;6775;49.574;11.170;2023-04-28T14:08:51;14.40;99.90
13409;DHT22;6775;49.574;11.170;2023-04-28T14:11:19;14.40;99.90
13409;DHT22;6775;49.574;11.170;2023-04-28T14:13:48;14.50;99.90
13409;DHT22;6775;49.574;11.170;2023-04-28T14:16:16;14.50;99.90
13409;DHT22;6775;49.574;11.170;2023-04-28T14:18:44;14.50;99.90
13409;DHT22;6775;49.574;11.170;2023-04-28T14:21:11;14.50;99.90
13409;DHT22;6775;49.574;11.170;2023-04-28T14:23:41;14.50;99.90
13409;DHT22;6775;49.574;11.170;2023-04-28T14:26:08;14.50;99.90
13409;DHT22;6775;49.574;11.170;2023-04-28T14:28:36;14.40;99.90
13409;DHT22;6775;49.574;11.170;2023-04-28T14:31:04;14.40;99.90
13409;DHT22;6775;49.574;11.170;2023-04-28T14:33:34;14.30;99.90
13409;DHT22;6775;49.574;11.170;2023-04-28T14:36:03;14.40;99.90
13409;DHT22;6775;49.574;11.170;2023-04-28T14:38:31;14.40;99.90
13409;DHT22;6775;49.574;11.170;2023-04-28T14:41:00;14.30;99.90
13409;DHT22;6775;49.574;11.170;2023-04-28T14:43:27;14.30;99.90
13409;DHT22;6775;49.574;11.170;2023-04-28T14:45:55;14.30;99.90
13409;DHT22;6775;49.574;11.170;2023-04-28T14:48:24;14.30;99.90
13409;DHT22;6775;49.574;11.170;2023-04-28T14:50:52;14.40;99.90
13409;DHT22;6775;49.574;11.170;2023-04-28T14:53:20;14.40;99.90
13409;DHT22;6775;49.574;11.170;2023-04-28T14:55:47;14.40;99.90
13409;DHT22;6775;49.574;11.170;2023-04-28T14:58:17;14.40;99.90
13409;DHT22;6775;49.574;11.170;2023-04-28T15:00:45;14.40;99.90
13409;DHT22;6775;49.574;11.170;2023-04-28T15:03:13;14.50;99.90
13409;DHT22;6775;49.574;11.170;2023-04-28T15:05:41;14.50;99.90
13409;DHT22;6775;49.574;11.170;2023-04-28T15:08:09;14.70;99.90
13409;DHT22;6775;49.574;11.170;2023-04-28T15:10:38;14.70;99.90
13409;DHT22;6775;49.574;11.170;2023-04-28T15:13:06;14.80;99.90
13409;DHT22;6775;49.574;11.170;2023-04-28T15:15:35;14.80;99.90
13409;DHT22;6775;49.574;11.170;2023-04-28T15:18:03;14.80;99.90
13409;DHT22;6775;49.574;11.170;2023-04-28T15:20:32;14.70;99.90
13409;DHT22;6775;49.574;11.170;2023-04-28T15:23:02;14.70;99.90
13409;DHT22;6775;49.574;11.170;2023-04-28T15:25:30;14.60;99.90
13409;DHT22;6775;49.574;11.170;2023-04-28T15:27:58;14.50;99.90
13409;DHT22;6775;49.574;11.170;2023-04-28T15:30:26;14.50;99.90
13409;DHT22;6775;49.574;11.170;2023-04-28T15:32:55;14.40;99.90
13409;DHT22;6775;49.574;11.170;2023-04-28T15:35:23;14.40;99.90
13409;DHT22;6775;49.574;11.170;2023-04-28T15:37:51;14.40;99.90
13409;DHT22;6775;49.574;11.170;2023-04-28T15:40:19;14.30;99.90
13409;DHT22;6775;49.574;11.170;2023-04-28T15:42:47;14.30;99.90
13409;DHT22;6775;49.574;11.170;2023-04-28T15:45:20;14.30;99.90
13409;DHT22;6775;49.574;11.170;2023-04-28T15:47:48;14.30;99.90
13409;DHT22;6775;49.574;11.170;2023-04-28T15:50:18;14.40;99.90
13409;DHT22;6775;49.574;11.170;2023-04-28T15:52:47;14.30;99.90
13409;DHT22;6775;49.574;11.170;2023-04-28T15:55:17;14.30;99.90
13409;DHT22;6775;49.574;11.170;2023-04-28T15:57:45;14.30;99.90
13409;DHT22;6775;49.574;11.170;2023-04-28T16:00:14;14.20;99.90